sensor_id;sensor_type;location;lat;lon;timestamp;pressure;altitude;pressure_sealevel;temperature;humidity
48968;BME280;46511;53.148;8.204;2022-12-07T00:00:29;101390.75;;;5.73;nan
48968;BME280;46511;53.148;8.204;2022-12-07T00:03:00;101395.94;;;5.76;nan
48968;BME280;46511;53.148;8.204;2022-12-07T00:05:32;101384.56;;;5.74;nan
48968;BME280;46511;53.148;8.204;2022-12-07T00:08:03;101384.81;;;5.65;nan
48968;BME280;46511;53.148;8.204;2022-12-07T00:10:34;101389.53;;;5.54;nan
48968;BME280;46511;53.148;8.204;2022-12-07T00:13:06;101386.31;;;5.42;nan
48968;BME280;46511;53.148;8.204;2022-12-07T00:15:37;101393.53;;;5.34;nan
48968;BME280;46511;53.148;8.204;2022-12-07T00:18:08;101393.44;;;5.37;nan
48968;BME280;46511;53.148;8.204;2022-12-07T00:20:39;101391.56;;;5.42;nan
48968;BME280;46511;53.148;8.204;2022-12-07T00:23:10;101400.91;;;5.54;nan
48968;BME280;46511;53.148;8.204;2022-12-07T00:25:42;101405.34;;;5.54;nan
48968;BME280;46511;53.148;8.204;2022-12-07T00:28:13;101398.47;;;5.47;nan
48968;BME280;46511;53.148;8.204;2022-12-07T00:30:39;101399.53;;;5.39;nan
48968;BME280;46511;53.148;8.204;2022-12-07T00:33:11;101398.94;;;5.28;nan
48968;BME280;46511;53.148;8.204;2022-12-07T00:35:42;101399.16;;;5.19;nan
48968;BME280;46511;53.148;8.204;2022-12-07T00:38:13;101392.13;;;5.21;nan
48968;BME280;46511;53.148;8.204;2022-12-07T00:40:44;101390.44;;;5.17;nan
48968;BME280;46511;53.148;8.204;2022-12-07T00:43:25;101396.75;;;5.10;nan
48968;BME280;46511;53.148;8.204;2022-12-07T00:45:57;101392.56;;;5.03;nan
48968;BME280;46511;53.148;8.204;2022-12-07T00:48:29;101394.44;;;4.98;nan
48968;BME280;46511;53.148;8.204;2022-12-07T00:51:00;101389.50;;;4.82;nan
48968;BME280;46511;53.148;8.204;2022-12-07T00:53:27;101382.72;;;4.74;nan
48968;BME280;46511;53.148;8.204;2022-12-07T00:56:04;101380.22;;;4.68;nan
48968;BME280;46511;53.148;8.204;2022-12-07T00:58:39;101383.47;;;4.79;nan
48968;BME280;46511;53.148;8.204;2022-12-07T01:01:10;101383.28;;;4.86;nan
48968;BME280;46511;53.148;8.204;2022-12-07T01:03:42;101375.09;;;4.99;nan
48968;BME280;46511;53.148;8.204;2022-12-07T01:06:14;101371.63;;;4.97;nan
48968;BME280;46511;53.148;8.204;2022-12-07T01:08:47;101376.09;;;4.95;nan
48968;BME280;46511;53.148;8.204;2022-12-07T01:11:20;101371.09;;;4.82;nan
48968;BME280;46511;53.148;8.204;2022-12-07T01:13:54;101369.56;;;4.74;nan
48968;BME280;46511;53.148;8.204;2022-12-07T01:16:27;101367.16;;;4.65;nan
48968;BME280;46511;53.148;8.204;2022-12-07T01:19:01;101368.06;;;4.62;nan
48968;BME280;46511;53.148;8.204;2022-12-07T01:21:33;101366.41;;;4.58;nan
48968;BME280;46511;53.148;8.204;2022-12-07T01:24:08;101370.19;;;4.45;nan
48968;BME280;46511;53.148;8.204;2022-12-07T01:26:42;101367.47;;;4.49;nan
48968;BME280;46511;53.148;8.204;2022-12-07T01:29:13;101359.66;;;4.46;nan
48968;BME280;46511;53.148;8.204;2022-12-07T01:31:44;101371.09;;;4.44;nan
48968;BME280;46511;53.148;8.204;2022-12-07T01:34:16;101365.91;;;4.41;nan
48968;BME280;46511;53.148;8.204;2022-12-07T01:36:47;101363.97;;;4.49;nan
48968;BME280;46511;53.148;8.204;2022-12-07T01:39:18;101374.31;;;4.58;nan
48968;BME280;46511;53.148;8.204;2022-12-07T01:41:50;101393.22;;;4.75;nan
48968;BME280;46511;53.148;8.204;2022-12-07T01:44:28;101392.00;;;4.88;nan
48968;BME280;46511;53.148;8.204;2022-12-07T01:47:02;101397.84;;;5.03;nan
48968;BME280;46511;53.148;8.204;2022-12-07T01:55:02;101373.56;;;5.26;nan
48968;BME280;46511;53.148;8.204;2022-12-07T01:57:39;101370.47;;;5.08;nan
48968;BME280;46511;53.148;8.204;2022-12-07T02:00:13;101363.38;;;5.10;nan
48968;BME280;46511;53.148;8.204;2022-12-07T02:05:15;101362.66;;;5.05;nan
48968;BME280;46511;53.148;8.204;2022-12-07T02:07:48;101367.97;;;5.04;nan
48968;BME280;46511;53.148;8.204;2022-12-07T02:10:21;101363.53;;;5.06;nan
48968;BME280;46511;53.148;8.204;2022-12-07T02:13:20;101360.75;;;5.12;nan
48968;BME280;46511;53.148;8.204;2022-12-07T02:21:45;101360.56;;;5.18;nan
48968;BME280;46511;53.148;8.204;2022-12-07T02:30:08;101346.50;;;5.19;nan
48968;BME280;46511;53.148;8.204;2022-12-07T02:35:51;101336.03;;;5.16;nan
48968;BME280;46511;53.148;8.204;2022-12-07T02:38:44;101330.28;;;5.00;nan
48968;BME280;46511;53.148;8.204;2022-12-07T02:41:36;101335.81;;;4.90;nan
48968;BME280;46511;53.148;8.204;2022-12-07T02:44:13;101328.16;;;4.80;nan
48968;BME280;46511;53.148;8.204;2022-12-07T02:46:53;101324.78;;;4.75;nan
48968;BME280;46511;53.148;8.204;2022-12-07T02:49:28;101327.66;;;4.65;nan
48968;BME280;46511;53.148;8.204;2022-12-07T02:52:01;101330.41;;;4.60;nan
48968;BME280;46511;53.148;8.204;2022-12-07T02:54:32;101327.22;;;4.46;nan
48968;BME280;46511;53.148;8.204;2022-12-07T03:11:05;101332.31;;;4.13;nan
48968;BME280;46511;53.148;8.204;2022-12-07T03:13:45;101322.53;;;4.20;nan
48968;BME280;46511;53.148;8.204;2022-12-07T03:16:26;101317.94;;;4.29;nan
48968;BME280;46511;53.148;8.204;2022-12-07T03:19:03;101311.69;;;4.34;nan
48968;BME280;46511;53.148;8.204;2022-12-07T03:21:42;101311.50;;;4.43;nan
48968;BME280;46511;53.148;8.204;2022-12-07T03:24:17;101312.28;;;4.48;nan
48968;BME280;46511;53.148;8.204;2022-12-07T03:26:55;101313.00;;;4.53;nan
48968;BME280;46511;53.148;8.204;2022-12-07T03:29:34;101319.25;;;4.49;nan
48968;BME280;46511;53.148;8.204;2022-12-07T03:32:13;101323.03;;;4.37;nan
48968;BME280;46511;53.148;8.204;2022-12-07T03:35:00;101317.69;;;4.40;nan
48968;BME280;46511;53.148;8.204;2022-12-07T03:37:37;101316.63;;;4.49;nan
48968;BME280;46511;53.148;8.204;2022-12-07T03:40:19;101318.28;;;4.53;nan
48968;BME280;46511;53.148;8.204;2022-12-07T03:43:10;101312.22;;;4.49;nan
48968;BME280;46511;53.148;8.204;2022-12-07T03:45:43;101321.94;;;4.47;nan
48968;BME280;46511;53.148;8.204;2022-12-07T03:48:22;101322.72;;;4.51;nan
48968;BME280;46511;53.148;8.204;2022-12-07T03:54:02;101320.84;;;4.56;nan
48968;BME280;46511;53.148;8.204;2022-12-07T03:56:49;101323.69;;;4.47;nan
48968;BME280;46511;53.148;8.204;2022-12-07T03:59:22;101324.81;;;4.37;nan
48968;BME280;46511;53.148;8.204;2022-12-07T04:01:56;101323.22;;;4.29;nan
48968;BME280;46511;53.148;8.204;2022-12-07T04:04:32;101328.66;;;4.20;nan
48968;BME280;46511;53.148;8.204;2022-12-07T04:07:05;101324.38;;;4.15;nan
48968;BME280;46511;53.148;8.204;2022-12-07T04:09:36;101324.38;;;4.15;nan
48968;BME280;46511;53.148;8.204;2022-12-07T04:12:07;101319.06;;;4.19;nan
48968;BME280;46511;53.148;8.204;2022-12-07T04:14:33;101326.78;;;4.25;nan
48968;BME280;46511;53.148;8.204;2022-12-07T04:17:05;101324.03;;;4.32;nan
48968;BME280;46511;53.148;8.204;2022-12-07T04:19:36;101318.91;;;4.25;nan
48968;BME280;46511;53.148;8.204;2022-12-07T04:22:07;101326.13;;;4.17;nan
48968;BME280;46511;53.148;8.204;2022-12-07T04:24:39;101315.72;;;4.11;nan
48968;BME280;46511;53.148;8.204;2022-12-07T04:27:10;101326.31;;;4.08;nan
48968;BME280;46511;53.148;8.204;2022-12-07T04:29:41;101333.34;;;4.06;nan
48968;BME280;46511;53.148;8.204;2022-12-07T04:32:12;101341.00;;;4.17;nan
48968;BME280;46511;53.148;8.204;2022-12-07T04:34:47;101334.47;;;4.36;nan
48968;BME280;46511;53.148;8.204;2022-12-07T04:37:18;101332.34;;;4.52;nan
48968;BME280;46511;53.148;8.204;2022-12-07T04:39:49;101327.66;;;4.65;nan
48968;BME280;46511;53.148;8.204;2022-12-07T04:42:20;101325.06;;;4.63;nan
48968;BME280;46511;53.148;8.204;2022-12-07T04:44:52;101326.97;;;4.56;nan
48968;BME280;46511;53.148;8.204;2022-12-07T04:47:23;101317.44;;;4.51;nan
48968;BME280;46511;53.148;8.204;2022-12-07T04:49:54;101322.78;;;4.48;nan
48968;BME280;46511;53.148;8.204;2022-12-07T04:52:25;101319.22;;;4.50;nan
48968;BME280;46511;53.148;8.204;2022-12-07T04:54:57;101316.50;;;4.55;nan
48968;BME280;46511;53.148;8.204;2022-12-07T04:57:28;101310.13;;;4.64;nan
48968;BME280;46511;53.148;8.204;2022-12-07T04:59:59;101307.69;;;4.56;nan
48968;BME280;46511;53.148;8.204;2022-12-07T05:02:30;101302.22;;;4.65;nan
48968;BME280;46511;53.148;8.204;2022-12-07T05:05:02;101307.31;;;4.71;nan
48968;BME280;46511;53.148;8.204;2022-12-07T05:07:33;101305.38;;;4.79;nan
48968;BME280;46511;53.148;8.204;2022-12-07T05:10:05;101302.78;;;4.78;nan
48968;BME280;46511;53.148;8.204;2022-12-07T05:12:36;101294.97;;;4.73;nan
48968;BME280;46511;53.148;8.204;2022-12-07T05:15:08;101305.66;;;4.67;nan
48968;BME280;46511;53.148;8.204;2022-12-07T05:17:39;101302.41;;;4.57;nan
48968;BME280;46511;53.148;8.204;2022-12-07T05:20:11;101312.00;;;4.58;nan
48968;BME280;46511;53.148;8.204;2022-12-07T05:22:42;101307.75;;;4.53;nan
48968;BME280;46511;53.148;8.204;2022-12-07T05:25:14;101306.19;;;4.46;nan
48968;BME280;46511;53.148;8.204;2022-12-07T05:27:45;101311.53;;;4.41;nan
48968;BME280;46511;53.148;8.204;2022-12-07T05:30:16;101309.84;;;4.39;nan
48968;BME280;46511;53.148;8.204;2022-12-07T05:32:47;101315.03;;;4.42;nan
48968;BME280;46511;53.148;8.204;2022-12-07T05:35:19;101316.84;;;4.40;nan
48968;BME280;46511;53.148;8.204;2022-12-07T05:37:50;101308.94;;;4.40;nan
48968;BME280;46511;53.148;8.204;2022-12-07T05:40:21;101308.81;;;4.44;nan
48968;BME280;46511;53.148;8.204;2022-12-07T05:42:53;101309.47;;;4.54;nan
48968;BME280;46511;53.148;8.204;2022-12-07T05:45:24;101303.09;;;4.64;nan
48968;BME280;46511;53.148;8.204;2022-12-07T05:47:55;101303.94;;;4.66;nan
48968;BME280;46511;53.148;8.204;2022-12-07T05:50:26;101302.00;;;4.74;nan
48968;BME280;46511;53.148;8.204;2022-12-07T05:52:59;101297.66;;;4.72;nan
48968;BME280;46511;53.148;8.204;2022-12-07T05:55:25;101301.19;;;4.71;nan
48968;BME280;46511;53.148;8.204;2022-12-07T05:57:56;101299.47;;;4.70;nan
48968;BME280;46511;53.148;8.204;2022-12-07T06:00:57;101311.84;;;4.66;nan
48968;BME280;46511;53.148;8.204;2022-12-07T06:03:28;101309.84;;;4.76;nan
48968;BME280;46511;53.148;8.204;2022-12-07T06:05:59;101305.38;;;4.79;nan
48968;BME280;46511;53.148;8.204;2022-12-07T06:08:31;101312.41;;;4.79;nan
48968;BME280;46511;53.148;8.204;2022-12-07T06:11:02;101306.94;;;4.86;nan
48968;BME280;46511;53.148;8.204;2022-12-07T06:13:52;101305.06;;;4.92;nan
48968;BME280;46511;53.148;8.204;2022-12-07T06:16:23;101298.69;;;5.00;nan
48968;BME280;46511;53.148;8.204;2022-12-07T06:18:54;101303.09;;;5.00;nan
48968;BME280;46511;53.148;8.204;2022-12-07T06:21:26;101294.22;;;5.04;nan
48968;BME280;46511;53.148;8.204;2022-12-07T06:23:57;101288.03;;;5.06;nan
48968;BME280;46511;53.148;8.204;2022-12-07T06:26:29;101295.72;;;5.14;nan
48968;BME280;46511;53.148;8.204;2022-12-07T06:29:00;101294.69;;;5.20;nan
48968;BME280;46511;53.148;8.204;2022-12-07T06:31:32;101298.06;;;5.25;nan
48968;BME280;46511;53.148;8.204;2022-12-07T06:34:04;101308.41;;;5.32;nan
48968;BME280;46511;53.148;8.204;2022-12-07T06:36:37;101307.41;;;5.36;nan
48968;BME280;46511;53.148;8.204;2022-12-07T06:39:09;101316.03;;;5.43;nan
48968;BME280;46511;53.148;8.204;2022-12-07T06:41:40;101317.69;;;5.45;nan
48968;BME280;46511;53.148;8.204;2022-12-07T06:44:12;101328.16;;;5.49;nan
48968;BME280;46511;53.148;8.204;2022-12-07T06:46:43;101336.06;;;5.49;nan
48968;BME280;46511;53.148;8.204;2022-12-07T06:49:14;101329.81;;;5.53;nan
48968;BME280;46511;53.148;8.204;2022-12-07T06:51:46;101339.53;;;5.51;nan
48968;BME280;46511;53.148;8.204;2022-12-07T06:54:17;101333.25;;;5.55;nan
48968;BME280;46511;53.148;8.204;2022-12-07T06:56:48;101320.91;;;5.57;nan
48968;BME280;46511;53.148;8.204;2022-12-07T06:59:20;101330.47;;;5.61;nan
48968;BME280;46511;53.148;8.204;2022-12-07T07:01:51;101333.25;;;5.55;nan
48968;BME280;46511;53.148;8.204;2022-12-07T07:04:22;101333.50;;;5.45;nan
48968;BME280;46511;53.148;8.204;2022-12-07T07:06:54;101342.66;;;5.32;nan
48968;BME280;46511;53.148;8.204;2022-12-07T07:09:25;101334.22;;;5.18;nan
48968;BME280;46511;53.148;8.204;2022-12-07T07:11:57;101344.41;;;4.98;nan
48968;BME280;46511;53.148;8.204;2022-12-07T07:14:28;101341.34;;;4.79;nan
48968;BME280;46511;53.148;8.204;2022-12-07T07:16:59;101338.34;;;4.58;nan
48968;BME280;46511;53.148;8.204;2022-12-07T07:19:30;101340.56;;;4.38;nan
48968;BME280;46511;53.148;8.204;2022-12-07T07:22:02;101332.13;;;4.22;nan
48968;BME280;46511;53.148;8.204;2022-12-07T07:24:33;101328.88;;;4.11;nan
48968;BME280;46511;53.148;8.204;2022-12-07T07:27:04;101332.44;;;4.07;nan
48968;BME280;46511;53.148;8.204;2022-12-07T07:29:35;101331.69;;;4.02;nan
48968;BME280;46511;53.148;8.204;2022-12-07T07:32:07;101331.72;;;4.00;nan
48968;BME280;46511;53.148;8.204;2022-12-07T07:34:39;101323.88;;;3.99;nan
48968;BME280;46511;53.148;8.204;2022-12-07T07:37:10;101325.63;;;3.98;nan
48968;BME280;46511;53.148;8.204;2022-12-07T07:39:43;101333.53;;;3.97;nan
48968;BME280;46511;53.148;8.204;2022-12-07T07:42:14;101336.94;;;4.02;nan
48968;BME280;46511;53.148;8.204;2022-12-07T07:44:46;101332.56;;;4.03;nan
48968;BME280;46511;53.148;8.204;2022-12-07T07:47:17;101336.88;;;4.05;nan
48968;BME280;46511;53.148;8.204;2022-12-07T07:49:48;101336.81;;;4.08;nan
48968;BME280;46511;53.148;8.204;2022-12-07T07:52:19;101327.88;;;4.15;nan
48968;BME280;46511;53.148;8.204;2022-12-07T07:54:51;101339.72;;;4.35;nan
48968;BME280;46511;53.148;8.204;2022-12-07T07:57:22;101340.91;;;4.60;nan
48968;BME280;46511;53.148;8.204;2022-12-07T07:59:53;101342.13;;;4.82;nan
48968;BME280;46511;53.148;8.204;2022-12-07T08:02:24;101347.84;;;5.00;nan
48968;BME280;46511;53.148;8.204;2022-12-07T08:04:56;101348.41;;;5.14;nan
48968;BME280;46511;53.148;8.204;2022-12-07T08:07:27;101336.28;;;5.07;nan
48968;BME280;46511;53.148;8.204;2022-12-07T08:09:59;101339.72;;;5.09;nan
48968;BME280;46511;53.148;8.204;2022-12-07T08:12:30;101338.78;;;5.11;nan
48968;BME280;46511;53.148;8.204;2022-12-07T08:15:01;101341.47;;;5.10;nan
48968;BME280;46511;53.148;8.204;2022-12-07T08:17:32;101340.50;;;5.14;nan
48968;BME280;46511;53.148;8.204;2022-12-07T08:20:04;101341.22;;;5.19;nan
48968;BME280;46511;53.148;8.204;2022-12-07T08:22:36;101329.81;;;5.53;nan
48968;BME280;46511;53.148;8.204;2022-12-07T08:25:07;101336.53;;;5.97;nan
48968;BME280;46511;53.148;8.204;2022-12-07T08:27:38;101338.38;;;6.23;nan
48968;BME280;46511;53.148;8.204;2022-12-07T08:30:10;101340.91;;;6.27;nan
48968;BME280;46511;53.148;8.204;2022-12-07T08:32:41;101343.16;;;6.10;nan
48968;BME280;46511;53.148;8.204;2022-12-07T08:35:13;101345.75;;;5.81;nan
48968;BME280;46511;53.148;8.204;2022-12-07T08:37:45;101348.69;;;5.70;nan
48968;BME280;46511;53.148;8.204;2022-12-07T08:40:16;101355.06;;;5.61;nan
48968;BME280;46511;53.148;8.204;2022-12-07T08:42:49;101351.47;;;5.64;nan
48968;BME280;46511;53.148;8.204;2022-12-07T08:45:21;101352.19;;;5.70;nan
48968;BME280;46511;53.148;8.204;2022-12-07T08:47:57;101350.25;;;5.76;nan
48968;BME280;46511;53.148;8.204;2022-12-07T08:50:34;101337.25;;;6.02;nan
48968;BME280;46511;53.148;8.204;2022-12-07T08:53:08;101352.31;;;5.98;nan
48968;BME280;46511;53.148;8.204;2022-12-07T08:55:39;101349.91;;;6.20;nan
48968;BME280;46511;53.148;8.204;2022-12-07T08:58:10;101354.56;;;6.40;nan
48968;BME280;46511;53.148;8.204;2022-12-07T09:00:42;101352.31;;;6.28;nan
48968;BME280;46511;53.148;8.204;2022-12-07T09:03:13;101353.94;;;6.32;nan
48968;BME280;46511;53.148;8.204;2022-12-07T09:05:44;101355.59;;;6.36;nan
48968;BME280;46511;53.148;8.204;2022-12-07T09:08:11;101360.31;;;6.54;nan
48968;BME280;46511;53.148;8.204;2022-12-07T09:10:42;101363.81;;;6.83;nan
48968;BME280;46511;53.148;8.204;2022-12-07T09:13:14;101359.59;;;7.04;nan
48968;BME280;46511;53.148;8.204;2022-12-07T09:15:45;101362.94;;;6.82;nan
48968;BME280;46511;53.148;8.204;2022-12-07T09:18:16;101355.47;;;6.95;nan
48968;BME280;46511;53.148;8.204;2022-12-07T09:20:47;101352.84;;;7.22;nan
48968;BME280;46511;53.148;8.204;2022-12-07T09:23:19;101354.25;;;7.82;nan
48968;BME280;46511;53.148;8.204;2022-12-07T09:25:50;101340.81;;;9.83;nan
48968;BME280;46511;53.148;8.204;2022-12-07T09:28:21;101333.03;;;14.80;nan
48968;BME280;46511;53.148;8.204;2022-12-07T09:30:52;101330.72;;;14.88;nan
48968;BME280;46511;53.148;8.204;2022-12-07T09:33:24;101338.84;;;13.44;nan
48968;BME280;46511;53.148;8.204;2022-12-07T09:35:55;101334.31;;;12.06;nan
48968;BME280;46511;53.148;8.204;2022-12-07T09:38:26;101354.09;;;11.50;nan
48968;BME280;46511;53.148;8.204;2022-12-07T09:40:57;101336.03;;;11.56;nan
48968;BME280;46511;53.148;8.204;2022-12-07T09:43:35;101343.25;;;14.04;nan
48968;BME280;46511;53.148;8.204;2022-12-07T09:46:13;101341.75;;;12.32;nan
48968;BME280;46511;53.148;8.204;2022-12-07T09:48:46;101331.00;;;11.33;nan
48968;BME280;46511;53.148;8.204;2022-12-07T09:51:20;101336.03;;;10.49;nan
48968;BME280;46511;53.148;8.204;2022-12-07T09:53:54;101331.06;;;10.23;nan
48968;BME280;46511;53.148;8.204;2022-12-07T09:56:29;101325.63;;;9.66;nan
48968;BME280;46511;53.148;8.204;2022-12-07T09:59:04;101337.66;;;9.34;nan
48968;BME280;46511;53.148;8.204;2022-12-07T10:01:37;101345.47;;;9.17;nan
48968;BME280;46511;53.148;8.204;2022-12-07T10:06:47;101333.78;;;8.57;nan
48968;BME280;46511;53.148;8.204;2022-12-07T10:09:21;101326.56;;;8.39;nan
48968;BME280;46511;53.148;8.204;2022-12-07T10:14:31;101315.53;;;10.14;nan
48968;BME280;46511;53.148;8.204;2022-12-07T10:25:36;101301.94;;;18.97;nan
48968;BME280;46511;53.148;8.204;2022-12-07T10:28:14;101299.03;;;20.23;nan
48968;BME280;46511;53.148;8.204;2022-12-07T10:31:15;101299.25;;;21.77;nan
48968;BME280;46511;53.148;8.204;2022-12-07T10:36:27;101297.53;;;17.96;nan
48968;BME280;46511;53.148;8.204;2022-12-07T10:39:19;101293.03;;;17.97;nan
48968;BME280;46511;53.148;8.204;2022-12-07T10:44:25;101294.13;;;16.54;nan
48968;BME280;46511;53.148;8.204;2022-12-07T10:47:01;101289.63;;;14.07;nan
48968;BME280;46511;53.148;8.204;2022-12-07T10:52:59;101288.44;;;12.48;nan
48968;BME280;46511;53.148;8.204;2022-12-07T10:55:56;101290.94;;;12.19;nan
48968;BME280;46511;53.148;8.204;2022-12-07T10:58:41;101282.03;;;11.37;nan
48968;BME280;46511;53.148;8.204;2022-12-07T11:04:29;101288.44;;;10.81;nan
48968;BME280;46511;53.148;8.204;2022-12-07T11:10:05;101277.59;;;11.03;nan
48968;BME280;46511;53.148;8.204;2022-12-07T11:16:02;101294.94;;;10.56;nan
48968;BME280;46511;53.148;8.204;2022-12-07T11:21:45;101282.22;;;10.27;nan
48968;BME280;46511;53.148;8.204;2022-12-07T11:24:27;101271.16;;;10.36;nan
48968;BME280;46511;53.148;8.204;2022-12-07T11:30:13;101255.97;;;10.57;nan
48968;BME280;46511;53.148;8.204;2022-12-07T11:32:51;101249.81;;;11.26;nan
48968;BME280;46511;53.148;8.204;2022-12-07T11:35:34;101246.16;;;12.10;nan
48968;BME280;46511;53.148;8.204;2022-12-07T11:38:15;101239.81;;;12.44;nan
48968;BME280;46511;53.148;8.204;2022-12-07T11:40:49;101236.19;;;13.21;nan
48968;BME280;46511;53.148;8.204;2022-12-07T11:43:30;101232.19;;;13.99;nan
48968;BME280;46511;53.148;8.204;2022-12-07T11:46:07;101235.44;;;13.90;nan
48968;BME280;46511;53.148;8.204;2022-12-07T11:48:45;101229.16;;;13.63;nan
48968;BME280;46511;53.148;8.204;2022-12-07T11:51:20;101230.13;;;13.62;nan
48968;BME280;46511;53.148;8.204;2022-12-07T11:53:57;101234.03;;;15.20;nan
48968;BME280;46511;53.148;8.204;2022-12-07T11:56:32;101221.50;;;14.68;nan
48968;BME280;46511;53.148;8.204;2022-12-07T11:59:16;101219.28;;;15.65;nan
48968;BME280;46511;53.148;8.204;2022-12-07T12:01:57;101208.53;;;15.52;nan
48968;BME280;46511;53.148;8.204;2022-12-07T12:07:22;101208.59;;;17.99;nan
48968;BME280;46511;53.148;8.204;2022-12-07T12:09:59;101202.31;;;18.97;nan
48968;BME280;46511;53.148;8.204;2022-12-07T12:12:40;101203.63;;;18.27;nan
48968;BME280;46511;53.148;8.204;2022-12-07T12:15:23;101201.78;;;17.04;nan
48968;BME280;46511;53.148;8.204;2022-12-07T12:23:44;101200.03;;;14.01;nan
48968;BME280;46511;53.148;8.204;2022-12-07T12:26:22;101192.13;;;12.70;nan
48968;BME280;46511;53.148;8.204;2022-12-07T12:28:57;101192.34;;;12.51;nan
48968;BME280;46511;53.148;8.204;2022-12-07T12:31:35;101188.88;;;12.65;nan
48968;BME280;46511;53.148;8.204;2022-12-07T12:37:38;101182.63;;;13.24;nan
48968;BME280;46511;53.148;8.204;2022-12-07T12:42:46;101178.13;;;11.40;nan
48968;BME280;46511;53.148;8.204;2022-12-07T12:45:25;101177.53;;;10.84;nan
48968;BME280;46511;53.148;8.204;2022-12-07T12:53:12;101185.19;;;10.01;nan
48968;BME280;46511;53.148;8.204;2022-12-07T12:58:28;101182.63;;;9.62;nan
48968;BME280;46511;53.148;8.204;2022-12-07T13:07:08;101213.72;;;8.99;nan
48968;BME280;46511;53.148;8.204;2022-12-07T13:09:42;101198.97;;;8.73;nan
48968;BME280;46511;53.148;8.204;2022-12-07T13:12:16;101196.50;;;8.68;nan
48968;BME280;46511;53.148;8.204;2022-12-07T13:14:54;101196.25;;;8.52;nan
48968;BME280;46511;53.148;8.204;2022-12-07T13:20:03;101186.84;;;8.67;nan
48968;BME280;46511;53.148;8.204;2022-12-07T13:22:37;101183.00;;;8.74;nan
48968;BME280;46511;53.148;8.204;2022-12-07T13:28:32;101179.69;;;8.69;nan
48968;BME280;46511;53.148;8.204;2022-12-07T13:31:00;101167.63;;;8.62;nan
48968;BME280;46511;53.148;8.204;2022-12-07T13:33:42;101167.97;;;8.75;nan
48968;BME280;46511;53.148;8.204;2022-12-07T13:36:12;101171.63;;;8.72;nan
48968;BME280;46511;53.148;8.204;2022-12-07T13:38:56;101173.84;;;8.61;nan
48968;BME280;46511;53.148;8.204;2022-12-07T13:41:29;101171.56;;;8.52;nan
48968;BME280;46511;53.148;8.204;2022-12-07T13:44:17;101165.88;;;8.41;nan
48968;BME280;46511;53.148;8.204;2022-12-07T13:51:54;101180.03;;;8.40;nan
48968;BME280;46511;53.148;8.204;2022-12-07T13:54:43;101169.22;;;8.66;nan
48968;BME280;46511;53.148;8.204;2022-12-07T13:57:19;101169.88;;;9.12;nan
48968;BME280;46511;53.148;8.204;2022-12-07T13:59:51;101169.25;;;9.26;nan
48968;BME280;46511;53.148;8.204;2022-12-07T14:02:27;101190.13;;;9.33;nan
48968;BME280;46511;53.148;8.204;2022-12-07T14:10:31;101208.53;;;8.55;nan
48968;BME280;46511;53.148;8.204;2022-12-07T14:16:00;101211.16;;;6.68;nan
48968;BME280;46511;53.148;8.204;2022-12-07T14:18:37;101197.00;;;6.16;nan
48968;BME280;46511;53.148;8.204;2022-12-07T14:23:41;101199.25;;;5.72;nan
48968;BME280;46511;53.148;8.204;2022-12-07T14:26:14;101188.38;;;5.53;nan
48968;BME280;46511;53.148;8.204;2022-12-07T14:28:49;101183.97;;;5.54;nan
48968;BME280;46511;53.148;8.204;2022-12-07T14:31:21;101182.25;;;5.53;nan
48968;BME280;46511;53.148;8.204;2022-12-07T14:33:58;101168.31;;;5.48;nan
48968;BME280;46511;53.148;8.204;2022-12-07T14:36:30;101170.06;;;5.49;nan
48968;BME280;46511;53.148;8.204;2022-12-07T14:39:01;101167.25;;;5.55;nan
48968;BME280;46511;53.148;8.204;2022-12-07T14:41:32;101166.53;;;5.50;nan
48968;BME280;46511;53.148;8.204;2022-12-07T14:44:23;101161.16;;;5.53;nan
48968;BME280;46511;53.148;8.204;2022-12-07T14:46:54;101158.81;;;5.43;nan
48968;BME280;46511;53.148;8.204;2022-12-07T14:49:25;101155.66;;;5.31;nan
48968;BME280;46511;53.148;8.204;2022-12-07T14:51:57;101157.56;;;5.26;nan
48968;BME280;46511;53.148;8.204;2022-12-07T14:54:29;101157.34;;;5.33;nan
48968;BME280;46511;53.148;8.204;2022-12-07T14:57:03;101156.28;;;5.39;nan
48968;BME280;46511;53.148;8.204;2022-12-07T14:59:34;101159.72;;;5.42;nan
48968;BME280;46511;53.148;8.204;2022-12-07T15:02:05;101156.94;;;5.47;nan
48968;BME280;46511;53.148;8.204;2022-12-07T15:04:37;101152.34;;;5.54;nan
48968;BME280;46511;53.148;8.204;2022-12-07T15:07:11;101153.97;;;5.58;nan
48968;BME280;46511;53.148;8.204;2022-12-07T15:09:50;101152.88;;;5.65;nan
48968;BME280;46511;53.148;8.204;2022-12-07T15:12:21;101157.19;;;5.67;nan
48968;BME280;46511;53.148;8.204;2022-12-07T15:14:52;101162.44;;;5.69;nan
48968;BME280;46511;53.148;8.204;2022-12-07T15:17:24;101163.38;;;5.66;nan
48968;BME280;46511;53.148;8.204;2022-12-07T15:19:55;101164.56;;;5.56;nan
48968;BME280;46511;53.148;8.204;2022-12-07T15:22:26;101171.50;;;5.59;nan
48968;BME280;46511;53.148;8.204;2022-12-07T15:24:57;101163.53;;;5.62;nan
48968;BME280;46511;53.148;8.204;2022-12-07T15:27:29;101163.47;;;5.63;nan
48968;BME280;46511;53.148;8.204;2022-12-07T15:30:01;101159.34;;;5.55;nan
48968;BME280;46511;53.148;8.204;2022-12-07T15:32:33;101154.25;;;5.49;nan
48968;BME280;46511;53.148;8.204;2022-12-07T15:35:05;101157.88;;;5.44;nan
48968;BME280;46511;53.148;8.204;2022-12-07T15:37:36;101156.97;;;5.45;nan
48968;BME280;46511;53.148;8.204;2022-12-07T15:40:08;101157.72;;;5.51;nan
48968;BME280;46511;53.148;8.204;2022-12-07T15:42:40;101154.06;;;5.55;nan
48968;BME280;46511;53.148;8.204;2022-12-07T15:45:11;101152.34;;;5.54;nan
48968;BME280;46511;53.148;8.204;2022-12-07T15:47:44;101151.66;;;5.47;nan
48968;BME280;46511;53.148;8.204;2022-12-07T15:50:16;101152.56;;;5.46;nan
48968;BME280;46511;53.148;8.204;2022-12-07T15:52:48;101149.22;;;5.41;nan
48968;BME280;46511;53.148;8.204;2022-12-07T15:55:19;101138.00;;;5.34;nan
48968;BME280;46511;53.148;8.204;2022-12-07T15:57:51;101148.53;;;5.34;nan
48968;BME280;46511;53.148;8.204;2022-12-07T16:00:22;101152.63;;;5.44;nan
48968;BME280;46511;53.148;8.204;2022-12-07T16:02:53;101150.72;;;5.50;nan